Time;durP1;ratioP1;P1;durP2;ratioP2;P2;SDS_P1;SDS_P2;PMS_P1;PMS_P2;Temp;Humidity;BMP_temperature;BMP_pressure;BME280_temperature;BME280_humidity;BME280_pressure;Samples;Min_cycle;Max_cycle;Signal;HPM_P1;HPM_P2
2022/05/05 00:01:37;;;;;;;27.30;13.83;;;;;;;-145.18;100.00;60484.78;5044403;28;20127;-67
2022/05/05 00:04:03;;;;;;;27.63;13.47;;;;;;;-145.18;100.00;60484.78;5043192;28;20516;-67
2022/05/05 00:06:28;;;;;;;25.50;13.73;;;;;;;-145.18;100.00;60484.78;5043382;28;20532;-67
2022/05/05 00:08:54;;;;;;;26.97;14.47;;;;;;;-145.18;100.00;60484.78;5044612;28;20048;-67
2022/05/05 00:16:53;;;;;;;28.57;14.90;;;;;;;-145.18;100.00;60484.78;5035918;28;20044;-67
2022/05/05 00:19:18;;;;;;;27.03;14.17;;;;;;;-145.18;100.00;60484.78;5043549;28;20034;-67
2022/05/05 00:21:43;;;;;;;28.10;14.10;;;;;;;-145.18;100.00;60484.78;5043305;28;20029;-67
2022/05/05 00:24:09;;;;;;;28.00;14.30;;;;;;;-145.18;100.00;60484.78;5032630;28;20079;-67
2022/05/05 00:26:35;;;;;;;26.63;15.00;;;;;;;-145.18;100.00;60484.78;5042833;28;20099;-67
2022/05/05 00:29:00;;;;;;;30.60;15.80;;;;;;;-145.18;100.00;60484.78;5043355;28;20056;-67
2022/05/05 00:31:26;;;;;;;37.77;15.93;;;;;;;-145.18;100.00;60484.78;5038528;28;20084;-67
2022/05/05 00:33:51;;;;;;;31.23;15.17;;;;;;;-145.18;100.00;60484.78;5043490;28;20033;-67
2022/05/05 00:36:17;;;;;;;34.87;16.50;;;;;;;-145.18;100.00;60484.78;5047454;28;20037;-67
2022/05/05 00:38:43;;;;;;;32.83;16.20;;;;;;;-145.18;100.00;60484.78;5042652;28;20082;-67
2022/05/05 00:41:08;;;;;;;35.67;15.93;;;;;;;-145.18;100.00;60484.78;5040726;28;20057;-67
2022/05/05 00:43:35;;;;;;;28.53;15.77;;;;;;;-145.18;100.00;60484.78;5043797;28;20029;-67
2022/05/05 00:46:01;;;;;;;30.13;16.07;;;;;;;-145.18;100.00;60484.78;5041170;28;20079;-67
2022/05/05 00:48:27;;;;;;;29.10;15.57;;;;;;;-145.18;100.00;60484.78;5046450;28;20041;-67
2022/05/05 00:50:53;;;;;;;37.63;15.47;;;;;;;-145.18;100.00;60484.78;5048761;28;20047;-67
2022/05/05 00:53:19;;;;;;;33.90;16.30;;;;;;;-145.18;100.00;60484.78;5042666;28;20047;-67
2022/05/05 00:55:46;;;;;;;33.57;17.10;;;;;;;-145.18;100.00;60484.78;5046869;28;20037;-67
2022/05/05 00:58:13;;;;;;;33.70;15.43;;;;;;;-145.18;100.00;60484.78;5047359;28;20044;-67
2022/05/05 01:00:39;;;;;;;35.73;16.57;;;;;;;-145.18;100.00;60484.78;5042226;28;20042;-67
2022/05/05 01:03:08;;;;;;;32.77;15.53;;;;;;;-145.18;100.00;60484.78;5034429;28;20029;-67
2022/05/05 01:05:36;;;;;;;32.93;15.93;;;;;;;-145.18;100.00;60484.78;5037493;28;20129;-67
2022/05/05 01:08:02;;;;;;;27.87;15.53;;;;;;;-145.18;100.00;60484.78;5033306;28;20409;-67
2022/05/05 01:10:28;;;;;;;30.50;15.20;;;;;;;-145.18;100.00;60484.78;5040391;28;20029;-67
2022/05/05 01:12:53;;;;;;;25.03;14.60;;;;;;;-145.18;100.00;60484.78;5037992;28;20059;-67
2022/05/05 01:15:20;;;;;;;25.77;14.53;;;;;;;-145.18;100.00;60484.78;5036585;28;20037;-67
2022/05/05 01:17:45;;;;;;;33.73;15.13;;;;;;;-145.18;100.00;60484.78;5045158;28;20918;-67
2022/05/05 01:20:18;;;;;;;30.77;14.77;;;;;;;-145.18;100.00;60484.78;5035065;28;20040;-67
2022/05/05 01:22:44;;;;;;;32.23;15.23;;;;;;;-145.18;100.00;60484.78;5029903;28;20033;-67
2022/05/05 01:28:12;;;;;;;37.53;16.63;;;;;;;-145.18;100.00;60484.78;5047449;28;20040;-67
2022/05/05 01:30:42;;;;;;;30.80;16.00;;;;;;;-145.18;100.00;60484.78;5040529;28;20038;-67
2022/05/05 01:33:15;;;;;;;37.83;15.43;;;;;;;-145.18;100.00;60484.78;5035844;28;20412;-67
2022/05/05 01:35:42;;;;;;;36.40;16.33;;;;;;;-145.18;100.00;60484.78;5042427;28;20037;-67
2022/05/05 01:38:09;;;;;;;36.77;16.10;;;;;;;-145.18;100.00;60484.78;5047835;28;20025;-67
2022/05/05 01:40:36;;;;;;;30.80;16.63;;;;;;;-145.18;100.00;60484.78;5042526;28;20040;-67
2022/05/05 01:43:03;;;;;;;35.23;17.27;;;;;;;-145.18;100.00;60484.78;5043370;28;20158;-67
2022/05/05 01:45:29;;;;;;;32.63;17.20;;;;;;;-145.18;100.00;60484.78;5036341;28;20029;-67
2022/05/05 01:47:55;;;;;;;34.07;16.20;;;;;;;-145.18;100.00;60484.78;5045899;28;20033;-68
2022/05/05 01:50:20;;;;;;;34.60;17.20;;;;;;;-145.18;100.00;60484.78;5043612;28;20434;-67
2022/05/05 01:52:47;;;;;;;39.83;17.57;;;;;;;-145.18;100.00;60484.78;5044325;28;20098;-67
2022/05/05 01:55:12;;;;;;;35.83;17.27;;;;;;;-145.18;100.00;60484.78;5044262;28;20021;-67
2022/05/05 01:57:38;;;;;;;39.03;18.17;;;;;;;-145.18;100.00;60484.78;5043413;28;20431;-67
2022/05/05 02:00:04;;;;;;;34.07;17.60;;;;;;;-145.18;100.00;60484.78;5031927;28;20036;-68
2022/05/05 02:02:29;;;;;;;35.17;18.60;;;;;;;-145.18;100.00;60484.78;5037463;28;20044;-67
2022/05/05 02:04:54;;;;;;;38.83;17.43;;;;;;;-145.18;100.00;60484.78;5039190;28;20074;-67
2022/05/05 02:07:20;;;;;;;34.20;17.70;;;;;;;-145.18;100.00;60484.78;5038473;28;20311;-67
2022/05/05 02:09:45;;;;;;;30.27;16.27;;;;;;;-145.18;100.00;60484.78;5034225;28;20029;-67
2022/05/05 02:12:10;;;;;;;29.27;16.20;;;;;;;-145.18;100.00;60484.78;5036922;28;20664;-67
2022/05/05 02:14:36;;;;;;;31.87;16.30;;;;;;;-145.18;100.00;60484.78;5043173;28;20444;-67
2022/05/05 02:17:01;;;;;;;29.43;16.30;;;;;;;-145.18;100.00;60484.78;5036420;28;20032;-67
2022/05/05 02:19:26;;;;;;;34.23;16.50;;;;;;;-145.18;100.00;60484.78;5035929;28;20087;-67
2022/05/05 02:21:52;;;;;;;27.23;15.13;;;;;;;-145.18;100.00;60484.78;5034726;28;20148;-67
2022/05/05 02:24:17;;;;;;;28.90;14.90;;;;;;;-145.18;100.00;60484.78;5049219;28;20074;-67
2022/05/05 02:26:42;;;;;;;30.93;15.40;;;;;;;-145.18;100.00;60484.78;5045963;28;20032;-67
2022/05/05 02:29:08;;;;;;;36.70;16.37;;;;;;;-145.18;100.00;60484.78;5043268;28;20556;-67
2022/05/05 02:31:34;;;;;;;32.57;15.90;;;;;;;-145.18;100.00;60484.78;5042937;28;20521;-67
2022/05/05 02:33:59;;;;;;;29.90;15.83;;;;;;;-145.18;100.00;60484.78;5043567;28;20055;-67
2022/05/05 02:39:09;;;;;;;36.13;16.37;;;;;;;-145.18;100.00;60484.78;5042883;28;20036;-67
2022/05/05 02:41:36;;;;;;;41.37;16.37;;;;;;;-145.18;100.00;60484.78;5048315;28;20479;-67
2022/05/05 02:44:01;;;;;;;36.57;16.33;;;;;;;-145.18;100.00;60484.78;5050707;28;20025;-67
2022/05/05 02:46:27;;;;;;;36.90;16.97;;;;;;;-145.18;100.00;60484.78;5041573;28;20083;-67
2022/05/05 02:48:52;;;;;;;31.60;16.83;;;;;;;-145.18;100.00;60484.78;5044133;28;20025;-67
2022/05/05 02:51:17;;;;;;;38.93;17.87;;;;;;;-145.18;100.00;60484.78;5049523;28;20104;-67
2022/05/05 02:56:27;;;;;;;31.33;17.33;;;;;;;-145.18;100.00;60484.78;5041641;28;20468;-67
2022/05/05 02:58:53;;;;;;;34.73;17.63;;;;;;;-145.18;100.00;60484.78;5043482;28;20040;-67
2022/05/05 03:01:19;;;;;;;39.50;17.60;;;;;;;-145.18;100.00;60484.78;5038945;28;20378;-67
2022/05/05 03:03:44;;;;;;;39.27;17.43;;;;;;;-145.18;100.00;60484.78;5044426;28;20033;-67
2022/05/05 03:06:10;;;;;;;38.03;16.80;;;;;;;-145.18;100.00;60484.78;5045351;28;20529;-67
2022/05/05 03:08:35;;;;;;;33.60;18.13;;;;;;;-145.18;100.00;60484.78;5041615;28;20029;-67
2022/05/05 03:11:00;;;;;;;35.87;17.10;;;;;;;-145.18;100.00;60484.78;5040757;28;20041;-67
2022/05/05 03:13:26;;;;;;;34.07;17.73;;;;;;;-145.18;100.00;60484.78;5039437;28;20137;-67
2022/05/05 03:15:51;;;;;;;30.23;17.27;;;;;;;-145.18;100.00;60484.78;5042435;28;20025;-67
2022/05/05 03:18:16;;;;;;;32.67;17.23;;;;;;;-145.18;100.00;60484.78;5039400;28;20524;-67
2022/05/05 03:20:42;;;;;;;34.73;17.90;;;;;;;-145.18;100.00;60484.78;5041140;28;20033;-67
2022/05/05 03:23:08;;;;;;;32.17;16.37;;;;;;;-145.18;100.00;60484.78;5037337;28;20225;-67
2022/05/05 03:25:33;;;;;;;36.23;16.87;;;;;;;-145.18;100.00;60484.78;5048326;28;20021;-67
2022/05/05 03:27:59;;;;;;;36.03;17.40;;;;;;;-145.18;100.00;60484.78;5039594;28;20033;-67
2022/05/05 03:30:24;;;;;;;35.80;17.37;;;;;;;-145.18;100.00;60484.78;5038177;28;20033;-67
2022/05/05 03:32:49;;;;;;;38.30;18.03;;;;;;;-145.18;100.00;60484.78;5041435;28;20035;-67
2022/05/05 03:35:15;;;;;;;37.63;18.30;;;;;;;-145.18;100.00;60484.78;5046576;28;20035;-67
2022/05/05 03:37:40;;;;;;;43.30;17.93;;;;;;;-145.18;100.00;60484.78;5042446;28;20053;-67
2022/05/05 03:40:06;;;;;;;40.13;18.17;;;;;;;-145.18;100.00;60484.78;5040719;28;20056;-67
2022/05/05 03:42:32;;;;;;;40.53;18.20;;;;;;;-145.18;100.00;60484.78;5042251;28;20025;-67
2022/05/05 03:44:57;;;;;;;35.33;17.23;;;;;;;-145.18;100.00;60484.78;5040392;28;20045;-67
2022/05/05 03:47:23;;;;;;;36.90;17.13;;;;;;;-145.18;100.00;60484.78;5039289;28;20025;-67
2022/05/05 03:49:48;;;;;;;36.17;17.70;;;;;;;-145.18;100.00;60484.78;5045873;28;20458;-67
2022/05/05 03:52:13;;;;;;;34.93;17.97;;;;;;;-145.18;100.00;60484.78;5037093;28;20028;-67
2022/05/05 03:54:41;;;;;;;37.17;18.10;;;;;;;-145.18;100.00;60484.78;5037353;28;20090;-68
2022/05/05 03:57:06;;;;;;;35.10;17.40;;;;;;;-145.18;100.00;60484.78;5044140;28;20037;-67
2022/05/05 03:59:31;;;;;;;33.83;17.00;;;;;;;-145.18;100.00;60484.78;5042345;28;20033;-67
2022/05/05 04:01:57;;;;;;;34.00;16.70;;;;;;;-145.18;100.00;60484.78;5037380;28;20146;-67
2022/05/05 04:04:22;;;;;;;36.37;16.93;;;;;;;-145.18;100.00;60484.78;5038172;28;20029;-67
2022/05/05 04:06:48;;;;;;;39.00;18.13;;;;;;;-145.18;100.00;60484.78;5044216;28;20162;-67
2022/05/05 04:09:13;;;;;;;33.37;17.00;;;;;;;-145.18;100.00;60484.78;5039454;28;20059;-67
2022/05/05 04:11:39;;;;;;;30.33;16.63;;;;;;;-145.18;100.00;60484.78;5043701;28;20039;-67
2022/05/05 04:14:04;;;;;;;30.73;16.87;;;;;;;-145.18;100.00;60484.78;5035952;28;20124;-67
2022/05/05 04:16:33;;;;;;;32.33;16.70;;;;;;;-145.18;100.00;60484.78;5041419;28;20397;-67
2022/05/05 04:19:01;;;;;;;33.63;16.23;;;;;;;-145.18;100.00;60484.78;5037902;28;20405;-67
2022/05/05 04:21:26;;;;;;;31.03;15.37;;;;;;;-145.18;100.00;60484.78;5041190;28;20032;-67
2022/05/05 04:23:52;;;;;;;34.27;15.43;;;;;;;-145.18;100.00;60484.78;5041071;28;20047;-67
2022/05/05 04:26:18;;;;;;;24.47;14.43;;;;;;;-145.18;100.00;60484.78;5039087;28;20037;-67
2022/05/05 04:28:47;;;;;;;31.07;14.97;;;;;;;-145.18;100.00;60484.78;5039184;28;20056;-67
2022/05/05 04:31:18;;;;;;;28.73;15.60;;;;;;;-145.18;100.00;60484.78;5037331;28;20095;-67
2022/05/05 04:33:43;;;;;;;25.63;14.23;;;;;;;-145.18;100.00;60484.78;5038887;28;20036;-67
2022/05/05 04:36:10;;;;;;;22.03;12.60;;;;;;;-145.18;100.00;60484.78;5036250;28;20503;-67
2022/05/05 04:38:36;;;;;;;19.87;12.00;;;;;;;-145.18;100.00;60484.78;5038765;28;20057;-67
2022/05/05 04:41:02;;;;;;;18.37;11.60;;;;;;;-145.18;100.00;60484.78;5035734;28;20116;-68
2022/05/05 04:43:28;;;;;;;17.30;11.50;;;;;;;-145.18;100.00;60484.78;5034874;28;20029;-68
2022/05/05 04:45:53;;;;;;;23.43;11.47;;;;;;;-145.18;100.00;60484.78;5039743;28;20041;-68
2022/05/05 04:48:19;;;;;;;18.97;9.80;;;;;;;-145.18;100.00;60484.78;5039839;28;20114;-68
2022/05/05 04:50:44;;;;;;;19.40;9.77;;;;;;;-145.18;100.00;60484.78;5042522;28;20083;-68
2022/05/05 04:53:10;;;;;;;18.47;9.20;;;;;;;-145.18;100.00;60484.78;5040729;28;20047;-68
2022/05/05 04:55:35;;;;;;;18.37;9.27;;;;;;;-145.18;100.00;60484.78;5039780;28;20037;-67
2022/05/05 04:58:01;;;;;;;17.67;9.40;;;;;;;-145.18;100.00;60484.78;5043433;28;20041;-67
2022/05/05 05:00:26;;;;;;;18.47;9.60;;;;;;;-145.18;100.00;60484.78;5042257;28;20055;-68
2022/05/05 05:02:52;;;;;;;16.67;9.37;;;;;;;-145.18;100.00;60484.78;5041477;28;20116;-68
2022/05/05 05:05:17;;;;;;;17.93;10.20;;;;;;;-145.18;100.00;60484.78;5048511;28;20033;-68
2022/05/05 05:07:43;;;;;;;16.67;8.40;;;;;;;-145.18;100.00;60484.78;5032525;28;20036;-67
2022/05/05 05:10:09;;;;;;;14.03;8.30;;;;;;;-145.18;100.00;60484.78;5038907;28;20113;-68
2022/05/05 05:12:34;;;;;;;14.40;8.60;;;;;;;-145.18;100.00;60484.78;5046269;28;20074;-68
2022/05/05 05:15:00;;;;;;;19.43;9.00;;;;;;;-145.18;100.00;60484.78;5048087;28;20028;-68
2022/05/05 05:17:25;;;;;;;19.67;9.73;;;;;;;-145.18;100.00;60484.78;5043610;28;20037;-68
2022/05/05 05:19:52;;;;;;;15.43;9.07;;;;;;;-145.18;100.00;60484.78;5038189;28;20063;-68
2022/05/05 05:22:17;;;;;;;15.33;9.20;;;;;;;-145.18;100.00;60484.78;5046984;28;20140;-68
2022/05/05 05:24:43;;;;;;;15.53;9.40;;;;;;;-145.18;100.00;60484.78;5040589;28;20115;-68
2022/05/05 05:27:09;;;;;;;16.30;9.07;;;;;;;-145.18;100.00;60484.78;5040130;28;20033;-68
2022/05/05 05:29:34;;;;;;;13.17;9.47;;;;;;;-145.18;100.00;60484.78;5036099;28;20044;-68
2022/05/05 05:32:00;;;;;;;15.73;9.97;;;;;;;-145.18;100.00;60484.78;5043019;28;20055;-68
2022/05/05 05:34:25;;;;;;;20.03;9.43;;;;;;;-145.18;100.00;60484.78;5036920;28;20029;-68
2022/05/05 05:36:51;;;;;;;20.57;9.33;;;;;;;-145.18;100.00;60484.78;5036842;28;20029;-68
2022/05/05 05:39:17;;;;;;;15.40;8.53;;;;;;;-145.18;100.00;60484.78;5047819;28;20127;-68
2022/05/05 05:41:43;;;;;;;16.03;9.20;;;;;;;-145.18;100.00;60484.78;5047159;28;20059;-68
2022/05/05 05:44:09;;;;;;;17.17;9.03;;;;;;;-145.18;100.00;60484.78;5040240;28;20025;-68
2022/05/05 05:46:34;;;;;;;20.77;8.93;;;;;;;-145.18;100.00;60484.78;5042310;28;20031;-67
2022/05/05 05:48:59;;;;;;;14.48;7.85;;;;;;;-145.18;100.00;60484.78;5048931;28;20083;-67
2022/05/05 05:51:25;;;;;;;14.95;7.20;;;;;;;-145.18;100.00;60484.78;5049334;28;20112;-68
2022/05/05 05:53:51;;;;;;;14.00;6.90;;;;;;;-145.18;100.00;60484.78;5044773;28;20060;-68
2022/05/05 05:56:16;;;;;;;14.05;5.88;;;;;;;-145.18;100.00;60484.78;5036995;28;20553;-68
2022/05/05 05:58:42;;;;;;;12.75;6.47;;;;;;;-145.18;100.00;60484.78;5042662;28;20489;-68
2022/05/05 06:01:07;;;;;;;13.50;6.32;;;;;;;-145.18;100.00;60484.78;5039503;28;20025;-68
2022/05/05 06:06:17;;;;;;;14.77;7.40;;;;;;;-145.18;100.00;60484.78;5052402;28;20527;-68
2022/05/05 06:08:44;;;;;;;13.30;7.13;;;;;;;-145.18;100.00;60484.78;5042134;28;20029;-68
2022/05/05 06:11:11;;;;;;;14.73;7.53;;;;;;;-145.18;100.00;60484.78;5046752;28;20476;-68
2022/05/05 06:13:36;;;;;;;12.57;6.97;;;;;;;-145.18;100.00;60484.78;5033587;28;20068;-68
2022/05/05 06:16:04;;;;;;;11.87;7.43;;;;;;;-145.18;100.00;60484.78;5040341;28;20053;-68
2022/05/05 06:18:30;;;;;;;16.07;7.20;;;;;;;-145.18;100.00;60484.78;5035188;28;20488;-68
2022/05/05 06:20:55;;;;;;;16.27;7.50;;;;;;;-145.18;100.00;60484.78;5047732;28;20036;-68
2022/05/05 06:23:20;;;;;;;13.73;6.77;;;;;;;-145.18;100.00;60484.78;5055114;28;20025;-68
2022/05/05 06:25:46;;;;;;;11.07;6.00;;;;;;;-145.18;100.00;60484.78;5050798;28;20024;-68
2022/05/05 06:28:11;;;;;;;10.90;6.37;;;;;;;-145.18;100.00;60484.78;5052358;28;20025;-68
2022/05/05 06:30:37;;;;;;;14.63;7.10;;;;;;;-145.18;100.00;60484.78;5048264;28;20477;-68
2022/05/05 06:33:02;;;;;;;14.47;7.50;;;;;;;-145.18;100.00;60484.78;5042622;28;20503;-68
2022/05/05 06:35:28;;;;;;;11.97;6.93;;;;;;;-145.18;100.00;60484.78;5043863;28;20028;-68
2022/05/05 06:37:53;;;;;;;15.13;7.60;;;;;;;-145.18;100.00;60484.78;5054629;28;20060;-68
2022/05/05 06:40:19;;;;;;;13.00;7.00;;;;;;;-145.18;100.00;60484.78;5052879;28;20366;-68
2022/05/05 06:42:44;;;;;;;13.38;6.40;;;;;;;-145.18;100.00;60484.78;5039023;28;20434;-68
2022/05/05 06:45:11;;;;;;;11.13;6.40;;;;;;;-145.18;100.00;60484.78;5041013;28;20477;-68
2022/05/05 06:47:36;;;;;;;12.35;6.45;;;;;;;-145.18;100.00;60484.78;5036000;28;20041;-68
2022/05/05 06:50:02;;;;;;;22.27;12.13;;;;;;;-145.18;100.00;60484.78;5045948;28;20037;-68
2022/05/05 06:52:27;;;;;;;11.15;6.30;;;;;;;-145.18;100.00;60484.78;5040901;28;20040;-68
2022/05/05 06:54:53;;;;;;;11.98;6.15;;;;;;;-145.18;100.00;60484.78;5038484;28;20037;-67
2022/05/05 06:57:18;;;;;;;11.90;5.32;;;;;;;-145.18;100.00;60484.78;5049634;28;20048;-68
2022/05/05 06:59:44;;;;;;;13.07;5.47;;;;;;;-145.18;100.00;60484.78;5045397;28;20037;-68
2022/05/05 07:02:10;;;;;;;12.25;5.50;;;;;;;-145.18;100.00;60484.78;5054456;28;20028;-67
2022/05/05 07:07:21;;;;;;;12.73;6.07;;;;;;;-145.18;100.00;60484.78;5039718;28;20401;-67
2022/05/05 07:12:31;;;;;;;12.32;5.43;;;;;;;-145.18;100.00;60484.78;5050524;28;20094;-68
2022/05/05 07:14:58;;;;;;;9.77;5.40;;;;;;;-145.18;100.00;60484.78;5049105;28;20179;-67
2022/05/05 07:17:24;;;;;;;13.15;5.32;;;;;;;-145.18;100.00;60484.78;5037066;28;20112;-67
2022/05/05 07:19:50;;;;;;;12.63;5.32;;;;;;;-145.18;100.00;60484.78;5046179;28;20051;-68
2022/05/05 07:22:15;;;;;;;13.38;5.45;;;;;;;-145.18;100.00;60484.78;5048285;28;20040;-67
2022/05/05 07:24:41;;;;;;;12.20;5.38;;;;;;;-145.18;100.00;60484.78;5036341;28;20104;-67
2022/05/05 07:27:07;;;;;;;13.48;5.78;;;;;;;-145.18;100.00;60484.78;5049860;28;20543;-67
2022/05/05 07:29:33;;;;;;;10.13;5.35;;;;;;;-145.18;100.00;60484.78;5047231;28;20040;-68
2022/05/05 07:31:59;;;;;;;10.48;5.47;;;;;;;-145.18;100.00;60484.78;5039861;28;20029;-68
2022/05/05 07:34:25;;;;;;;11.13;5.45;;;;;;;-145.18;100.00;60484.78;5053526;28;20484;-67
2022/05/05 07:36:51;;;;;;;15.50;5.85;;;;;;;-145.18;100.00;60484.78;5052547;28;20036;-68
2022/05/05 07:39:17;;;;;;;13.73;5.40;;;;;;;-145.18;100.00;60484.78;5050212;28;20115;-68
2022/05/05 07:41:43;;;;;;;11.00;4.78;;;;;;;-145.18;100.00;60484.78;5049438;28;20029;-68
2022/05/05 07:44:09;;;;;;;14.07;5.32;;;;;;;-145.18;100.00;60484.78;5041159;28;20025;-68
2022/05/05 07:46:35;;;;;;;13.15;5.40;;;;;;;-145.18;100.00;60484.78;5044449;28;20052;-68
2022/05/05 07:49:02;;;;;;;10.88;4.95;;;;;;;-145.18;100.00;60484.78;5052492;28;20036;-67
2022/05/05 07:51:28;;;;;;;12.50;4.55;;;;;;;-145.18;100.00;60484.78;5050396;28;20063;-67
2022/05/05 07:56:39;;;;;;;13.13;3.50;;;;;;;-145.18;100.00;60484.78;5049926;28;20469;-67
2022/05/05 07:59:04;;;;;;;9.90;3.75;;;;;;;-145.18;100.00;60484.78;5052111;28;20116;-67
2022/05/05 08:01:29;;;;;;;10.10;3.80;;;;;;;-145.18;100.00;60484.78;5039573;28;20033;-67
2022/05/05 08:03:55;;;;;;;9.95;3.85;;;;;;;-145.18;100.00;60484.78;5051664;28;20025;-67
2022/05/05 08:06:21;;;;;;;13.48;3.70;;;;;;;-145.18;100.00;60484.78;5052764;28;20075;-67
2022/05/05 08:08:46;;;;;;;10.18;3.25;;;;;;;-145.18;100.00;60484.78;5052817;28;20067;-67
2022/05/05 08:11:12;;;;;;;8.93;3.75;;;;;;;-145.18;100.00;60484.78;5050682;28;20432;-67
2022/05/05 08:13:37;;;;;;;8.43;3.42;;;;;;;-145.18;100.00;60484.78;5052011;28;20111;-67
2022/05/05 08:16:02;;;;;;;11.50;3.70;;;;;;;-145.18;100.00;60484.78;5052709;28;20028;-67
2022/05/05 08:18:28;;;;;;;8.38;3.70;;;;;;;-145.18;100.00;60484.78;5052485;28;20031;-67
2022/05/05 08:20:53;;;;;;;13.02;3.50;;;;;;;-145.18;100.00;60484.78;5052645;28;20033;-67
2022/05/05 08:23:19;;;;;;;11.45;3.40;;;;;;;-145.18;100.00;60484.78;5052909;28;20032;-67
2022/05/05 08:28:28;;;;;;;8.80;3.35;;;;;;;-145.18;100.00;60484.78;5048020;28;20082;-67
2022/05/05 08:30:55;;;;;;;8.50;3.30;;;;;;;-145.18;100.00;60484.78;5051292;28;20025;-67
2022/05/05 08:33:20;;;;;;;10.77;3.13;;;;;;;-145.18;100.00;60484.78;5052234;28;20021;-67
2022/05/05 08:35:45;;;;;;;8.40;3.25;;;;;;;-145.18;100.00;60484.78;5052339;28;20052;-67
2022/05/05 08:38:11;;;;;;;9.38;3.30;;;;;;;-145.18;100.00;60484.78;5052497;28;20100;-67
2022/05/05 08:40:41;;;;;;;10.52;3.75;;;;;;;-145.18;100.00;60484.78;5051378;28;20499;-68
2022/05/05 08:43:07;;;;;;;9.68;3.65;;;;;;;-145.18;100.00;60484.78;5040177;28;20436;-68
2022/05/05 08:45:33;;;;;;;9.07;3.55;;;;;;;-145.18;100.00;60484.78;5051143;28;20025;-67
2022/05/05 08:47:59;;;;;;;8.75;3.55;;;;;;;-145.18;100.00;60484.78;5048343;28;20457;-67
2022/05/05 08:50:25;;;;;;;10.75;3.60;;;;;;;-145.18;100.00;60484.78;5049891;28;20397;-68
2022/05/05 08:52:51;;;;;;;13.15;3.25;;;;;;;-145.18;100.00;60484.78;5046261;28;20047;-68
2022/05/05 08:55:21;;;;;;;9.93;3.50;;;;;;;-145.18;100.00;60484.78;5036478;28;20052;-67
2022/05/05 08:57:47;;;;;;;10.27;3.10;;;;;;;-145.18;100.00;60484.78;5043535;28;20112;-68
2022/05/05 09:00:15;;;;;;;9.93;3.45;;;;;;;-145.18;100.00;60484.78;5051629;28;20399;-68
2022/05/05 09:02:44;;;;;;;7.53;3.28;;;;;;;-145.18;100.00;60484.78;5051868;28;20037;-67
2022/05/05 09:05:10;;;;;;;6.85;3.00;;;;;;;-145.18;100.00;60484.78;5046327;28;20477;-67
2022/05/05 09:07:49;;;;;;;6.82;3.28;;;;;;;-145.18;100.00;60484.78;5044311;28;20083;-67
2022/05/05 09:10:16;;;;;;;9.20;3.05;;;;;;;-145.18;100.00;60484.78;5041741;28;20043;-67
2022/05/05 09:12:41;;;;;;;8.68;2.92;;;;;;;-145.18;100.00;60484.78;5034758;28;20029;-67
2022/05/05 09:15:10;;;;;;;10.30;3.00;;;;;;;-145.18;100.00;60484.78;5038024;28;20036;-68
2022/05/05 09:17:35;;;;;;;7.38;3.00;;;;;;;-145.18;100.00;60484.78;5046113;28;20496;-68
2022/05/05 09:20:03;;;;;;;8.80;3.35;;;;;;;-145.18;100.00;60484.78;5042747;28;20033;-67
2022/05/05 09:22:29;;;;;;;6.38;2.97;;;;;;;-145.18;100.00;60484.78;5042641;28;20376;-67
2022/05/05 09:24:56;;;;;;;7.85;2.88;;;;;;;-145.18;100.00;60484.78;5048259;28;20020;-68
2022/05/05 09:27:40;;;;;;;9.35;3.38;;;;;;;-145.18;100.00;60484.78;5049715;28;20135;-67
2022/05/05 09:30:09;;;;;;;6.97;3.00;;;;;;;-145.18;100.00;60484.78;5048265;28;20520;-67
2022/05/05 09:32:40;;;;;;;6.40;2.83;;;;;;;-145.18;100.00;60484.78;5050761;28;20076;-68
2022/05/05 09:35:07;;;;;;;;;;;;;;;-145.18;100.00;60484.78;5047124;28;20525;-68
2022/05/05 09:37:33;;;;;;;6.85;3.40;;;;;;;-145.18;100.00;60484.78;5049279;28;19912;-68
2022/05/05 09:40:00;;;;;;;10.50;3.40;;;;;;;-145.18;100.00;60484.78;5042423;28;20028;-68
2022/05/05 09:42:43;;;;;;;8.32;3.30;;;;;;;-145.18;100.00;60484.78;5049007;28;20055;-68
2022/05/05 09:45:17;;;;;;;7.28;3.17;;;;;;;-145.18;100.00;60484.78;5040412;28;20013;-68
2022/05/05 09:47:44;;;;;;;8.45;3.25;;;;;;;-145.18;100.00;60484.78;5046825;28;20029;-68
2022/05/05 09:50:09;;;;;;;6.97;3.10;;;;;;;-145.18;100.00;60484.78;5042353;28;20477;-68
2022/05/05 09:58:12;;;;;;;6.35;3.00;;;;;;;-145.18;100.00;60484.78;5048740;28;20043;-68
2022/05/05 10:00:45;;;;;;;9.35;3.10;;;;;;;-145.18;100.00;60484.78;5041187;28;20480;-68
2022/05/05 10:06:10;;;;;;;8.95;3.30;;;;;;;-145.18;100.00;60484.78;5049800;28;20031;-68
2022/05/05 10:08:42;;;;;;;7.70;3.03;;;;;;;-145.18;100.00;60484.78;5050086;28;20101;-68
2022/05/05 10:11:08;;;;;;;9.00;3.33;;;;;;;-145.18;100.00;60484.78;5047839;28;20063;-68
2022/05/05 10:13:36;;;;;;;9.55;3.10;;;;;;;-145.18;100.00;60484.78;5049296;28;20032;-68
2022/05/05 10:16:03;;;;;;;8.32;3.30;;;;;;;-145.18;100.00;60484.78;5048443;28;20081;-68
2022/05/05 10:18:29;;;;;;;10.32;3.45;;;;;;;-145.18;100.00;60484.78;5040003;28;20508;-68
2022/05/05 10:20:57;;;;;;;7.88;3.03;;;;;;;-145.18;100.00;60484.78;5038798;28;20485;-68
2022/05/05 10:23:49;;;;;;;7.18;3.45;;;;;;;-145.18;100.00;60484.78;5033324;28;20108;-68
2022/05/05 10:26:21;;;;;;;11.50;3.38;;;;;;;-145.18;100.00;60484.78;5048537;28;20028;-68
2022/05/05 10:28:50;;;;;;;10.35;3.05;;;;;;;-145.18;100.00;60484.78;5046669;28;20366;-68
2022/05/05 10:31:30;;;;;;;9.10;3.55;;;;;;;-145.18;100.00;60484.78;5036207;28;20098;-68
2022/05/05 10:34:00;;;;;;;8.90;3.40;;;;;;;-145.18;100.00;60484.78;5050656;28;20025;-68
2022/05/05 10:36:27;;;;;;;8.07;2.90;;;;;;;-145.18;100.00;60484.78;5050203;28;20041;-68
2022/05/05 10:38:53;;;;;;;9.07;3.28;;;;;;;-145.18;100.00;60484.78;5050212;28;20033;-68
2022/05/05 10:41:31;;;;;;;6.05;3.42;;;;;;;-145.18;100.00;60484.78;5050302;28;20385;-68
2022/05/05 10:44:15;;;;;;;13.77;4.05;;;;;;;-145.18;100.00;60484.78;5049184;28;20029;-68
2022/05/05 10:46:52;;;;;;;7.50;3.40;;;;;;;-145.18;100.00;60484.78;5048376;28;20025;-68
2022/05/05 10:49:30;;;;;;;8.13;3.10;;;;;;;-145.18;100.00;60484.78;5050521;28;20025;-68
2022/05/05 10:52:07;;;;;;;7.78;3.40;;;;;;;-145.18;100.00;60484.78;5053712;28;20031;-68
2022/05/05 10:54:33;;;;;;;8.75;3.40;;;;;;;-145.18;100.00;60484.78;5046941;28;20072;-68
2022/05/05 10:57:24;;;;;;;7.00;2.50;;;;;;;-145.18;100.00;60484.78;5051962;28;20052;-68
2022/05/05 11:00:08;;;;;;;6.22;2.92;;;;;;;-145.18;100.00;60484.78;5037023;28;20082;-68
2022/05/05 11:02:35;;;;;;;6.00;2.40;;;;;;;-145.18;100.00;60484.78;5052687;28;20057;-68
2022/05/05 11:05:32;;;;;;;6.28;2.47;;;;;;;-145.18;100.00;60484.78;5049312;28;20017;-68
2022/05/05 11:08:07;;;;;;;8.38;2.50;;;;;;;-145.18;100.00;60484.78;5034331;28;20026;-68
2022/05/05 11:11:39;;;;;;;7.82;2.78;;;;;;;-145.18;100.00;60484.78;5048624;28;20039;-68
2022/05/05 11:13:35;;;;;;;;;;;;;;;-145.18;100.00;60484.78;5054149;28;20037;-67
2022/05/05 11:22:09;;;;;;;6.60;2.40;;;;;;;-145.18;100.00;60484.78;5048463;28;20044;-68
2022/05/05 11:24:36;;;;;;;6.05;2.53;;;;;;;-145.18;100.00;60484.78;5035175;28;20021;-68
2022/05/05 11:27:01;;;;;;;8.15;2.60;;;;;;;-145.18;100.00;60484.78;5048311;28;20021;-68
2022/05/05 11:29:31;;;;;;;6.20;2.30;;;;;;;-145.18;100.00;60484.78;5033539;28;20390;-68
2022/05/05 11:31:58;;;;;;;9.70;2.78;;;;;;;-145.18;100.00;60484.78;5051329;28;20033;-68
2022/05/05 11:34:31;;;;;;;6.63;2.50;;;;;;;-145.18;100.00;60484.78;5053585;28;20090;-68
2022/05/05 11:36:58;;;;;;;5.07;2.20;;;;;;;-145.18;100.00;60484.78;5053695;28;20040;-68
2022/05/05 11:39:23;;;;;;;6.00;2.10;;;;;;;-145.18;100.00;60484.78;5039535;28;20414;-68
2022/05/05 11:42:00;;;;;;;6.32;2.42;;;;;;;-145.18;100.00;60484.78;5053404;28;20112;-68
2022/05/05 11:44:27;;;;;;;5.55;2.20;;;;;;;-145.18;100.00;60484.78;5052935;28;20468;-68